createdAt,value
2019-04-05T00:00:07.439Z,14.50
2019-04-05T00:02:36.095Z,15.25
2019-04-05T00:05:04.929Z,14.65
2019-04-05T00:07:33.728Z,14.65
2019-04-05T00:10:02.894Z,16.67
2019-04-05T00:12:31.634Z,15.65
2019-04-05T00:15:00.173Z,16.70
2019-04-05T00:17:28.761Z,16.70
2019-04-05T00:19:57.292Z,17.75
2019-04-05T00:22:25.836Z,18.57
2019-04-05T00:24:54.420Z,20.52
2019-04-05T00:27:22.976Z,21.70
2019-04-05T00:29:51.629Z,19.85
2019-04-05T00:32:20.416Z,21.77
2019-04-05T00:34:48.944Z,23.67
2019-04-05T00:37:17.513Z,22.87
2019-04-05T00:39:46.170Z,22.60
2019-04-05T00:42:14.747Z,23.45
2019-04-05T00:44:43.367Z,23.60
2019-04-05T00:47:12.228Z,20.92
2019-04-05T00:49:40.975Z,21.05
2019-04-05T00:52:09.619Z,20.75
2019-04-05T00:54:38.268Z,22.00
2019-04-05T00:57:07.010Z,27.90
2019-04-05T00:59:35.765Z,33.18
2019-04-05T01:02:04.518Z,32.88
2019-04-05T01:04:33.045Z,34.05
2019-04-05T01:07:01.789Z,29.12
2019-04-05T01:09:30.467Z,26.42
2019-04-05T01:11:59.101Z,26.82
2019-04-05T01:14:28.032Z,25.60
2019-04-05T01:16:56.924Z,24.00
2019-04-05T01:19:29.505Z,21.45
2019-04-05T01:22:01.867Z,19.12
2019-04-05T01:24:30.602Z,18.02
2019-04-05T01:26:59.593Z,17.80
2019-04-05T01:29:28.332Z,17.85
2019-04-05T01:31:57.078Z,17.17
2019-04-05T01:34:25.824Z,17.35
2019-04-05T01:36:54.980Z,17.73
2019-04-05T01:39:23.727Z,18.02
2019-04-05T01:41:52.897Z,17.67
2019-04-05T01:44:21.523Z,16.30
2019-04-05T01:46:50.277Z,16.30
2019-04-05T01:49:19.105Z,16.75
2019-04-05T01:51:48.144Z,17.23
2019-04-05T01:54:16.880Z,18.02
2019-04-05T01:56:45.664Z,18.07
2019-04-05T01:59:14.215Z,17.95
2019-04-05T02:01:42.970Z,18.50
2019-04-05T02:04:11.674Z,19.00
2019-04-05T02:06:40.498Z,18.77
2019-04-05T02:09:10.427Z,18.55
2019-04-05T02:11:39.180Z,17.12
2019-04-05T02:14:08.029Z,17.02
2019-04-05T02:16:36.778Z,18.15
2019-04-05T02:19:05.761Z,16.57
2019-04-05T02:21:34.481Z,16.15
2019-04-05T02:24:03.660Z,15.68
2019-04-05T02:26:32.613Z,15.20
2019-04-05T02:29:01.386Z,15.80
2019-04-05T02:31:30.096Z,15.68
2019-04-05T02:33:58.874Z,15.08
2019-04-05T02:36:27.627Z,16.97
2019-04-05T02:38:56.385Z,17.23
2019-04-05T02:41:26.448Z,16.67
2019-04-05T02:43:57.285Z,20.17
2019-04-05T02:46:29.236Z,18.05
2019-04-05T02:49:00.995Z,16.73
2019-04-05T02:51:31.580Z,17.30
2019-04-05T02:54:01.736Z,16.97
2019-04-05T02:56:32.085Z,17.30
2019-04-05T02:59:02.027Z,16.60
2019-04-05T03:01:32.011Z,18.77
2019-04-05T03:04:01.662Z,18.98
2019-04-05T03:06:31.090Z,18.30
2019-04-05T03:09:00.759Z,17.87
2019-04-05T03:11:31.803Z,17.00
2019-04-05T03:14:02.551Z,18.95
2019-04-05T03:16:40.759Z,18.30
2019-04-05T03:19:12.150Z,17.98
2019-04-05T03:21:45.123Z,19.77
2019-04-05T03:24:17.472Z,17.90
2019-04-05T03:26:52.335Z,18.60
2019-04-05T03:29:21.394Z,19.48
2019-04-05T03:31:50.933Z,19.02
2019-04-05T03:34:20.889Z,19.67
2019-04-05T03:36:51.839Z,19.55
2019-04-05T03:39:22.262Z,20.17
2019-04-05T03:41:52.057Z,21.48
2019-04-05T03:44:23.090Z,19.73
2019-04-05T03:46:56.831Z,21.77
2019-04-05T03:49:23.577Z,22.42
2019-04-05T03:51:52.679Z,22.10
2019-04-05T03:54:21.934Z,21.80
2019-04-05T03:56:50.884Z,33.90
2019-04-05T03:59:19.923Z,23.27
2019-04-05T04:01:48.674Z,23.65
2019-04-05T04:04:17.545Z,22.02
2019-04-05T04:06:46.297Z,23.15
2019-04-05T04:09:15.057Z,22.90
2019-04-05T04:11:43.798Z,23.25
2019-04-05T04:14:12.952Z,25.37
2019-04-05T04:16:41.842Z,23.83
2019-04-05T04:19:11.278Z,22.30
2019-04-05T04:21:47.737Z,25.52
2019-04-05T04:24:17.952Z,21.20
2019-04-05T04:26:46.670Z,22.00
2019-04-05T04:29:15.551Z,20.50
2019-04-05T04:31:44.504Z,20.95
2019-04-05T04:34:13.491Z,20.45
2019-04-05T04:36:42.326Z,21.52
2019-04-05T04:39:11.595Z,19.62
2019-04-05T04:41:40.363Z,19.42
2019-04-05T04:44:09.102Z,18.80
2019-04-05T04:46:38.777Z,17.90
2019-04-05T04:49:07.716Z,17.98
2019-04-05T04:51:36.951Z,17.50
2019-04-05T04:54:05.927Z,19.07
2019-04-05T04:56:34.663Z,21.07
2019-04-05T04:59:03.519Z,20.82
2019-04-05T05:01:32.465Z,21.68
2019-04-05T05:04:01.543Z,22.15
2019-04-05T05:06:30.616Z,21.25
2019-04-05T05:08:59.639Z,20.32
2019-04-05T05:11:28.370Z,22.35
2019-04-05T05:13:57.254Z,22.25
2019-04-05T05:16:26.080Z,22.25
2019-04-05T05:18:55.022Z,22.30
2019-04-05T05:21:24.568Z,22.25
2019-04-05T05:23:53.428Z,21.40
2019-04-05T05:26:22.175Z,22.58
2019-04-05T05:28:51.433Z,23.92
2019-04-05T05:31:20.388Z,22.55
2019-04-05T05:33:49.349Z,23.50
2019-04-05T05:36:18.719Z,23.87
2019-04-05T05:38:47.591Z,23.60
2019-04-05T05:41:16.337Z,23.10
2019-04-05T05:43:44.988Z,25.62
2019-04-05T05:46:13.756Z,23.30
2019-04-05T05:48:43.019Z,26.20
2019-04-05T05:51:12.795Z,23.83
2019-04-05T05:53:41.483Z,24.23
2019-04-05T05:56:10.071Z,25.20
2019-04-05T05:58:38.647Z,25.45
2019-04-05T06:01:07.248Z,26.05
2019-04-05T06:03:35.875Z,26.10
2019-04-05T06:06:04.980Z,28.10
2019-04-05T06:08:33.783Z,27.77
2019-04-05T06:11:02.432Z,26.82
2019-04-05T06:13:31.071Z,26.12
2019-04-05T06:15:59.783Z,29.90
2019-04-05T06:18:28.321Z,25.65
2019-04-05T06:20:56.966Z,27.90
2019-04-05T06:23:33.546Z,28.15
2019-04-05T06:25:56.717Z,25.82
2019-04-05T06:28:25.281Z,26.80
2019-04-05T06:30:54.207Z,24.32
2019-04-05T06:33:31.389Z,23.95
2019-04-05T06:35:53.453Z,25.15
2019-04-05T06:38:22.035Z,24.52
2019-04-05T06:40:50.765Z,22.13
2019-04-05T06:43:19.531Z,24.45
2019-04-05T06:45:48.559Z,23.85
2019-04-05T06:48:19.408Z,27.25
2019-04-05T06:50:47.950Z,27.02
2019-04-05T06:53:16.681Z,24.67
2019-04-05T06:55:45.343Z,24.70
2019-04-05T06:58:19.864Z,24.35
2019-04-05T07:00:56.431Z,23.27
2019-04-05T07:03:15.062Z,24.70
2019-04-05T07:05:43.707Z,24.20
2019-04-05T07:08:12.445Z,24.63
2019-04-05T07:10:41.277Z,23.02
2019-04-05T07:13:10.059Z,23.02
2019-04-05T07:15:38.643Z,23.20
2019-04-05T07:18:07.643Z,22.40
2019-04-05T07:20:36.187Z,22.82
2019-04-05T07:23:04.839Z,23.90
2019-04-05T07:25:33.764Z,20.62
2019-04-05T07:28:02.602Z,19.80
2019-04-05T07:30:32.603Z,18.92
2019-04-05T07:33:01.340Z,19.70
2019-04-05T07:35:33.827Z,17.67
2019-04-05T07:38:00.498Z,18.75
2019-04-05T07:40:29.299Z,20.65
2019-04-05T07:42:58.028Z,17.30
2019-04-05T07:45:27.995Z,15.63
2019-04-05T07:47:56.687Z,18.95
2019-04-05T07:50:25.520Z,15.05
2019-04-05T07:52:54.178Z,15.55
2019-04-05T07:55:22.844Z,14.03
2019-04-05T07:57:51.550Z,13.70
2019-04-05T08:00:42.763Z,13.45
2019-04-05T08:03:11.735Z,12.30
2019-04-05T08:05:40.432Z,11.78
2019-04-05T08:08:13.184Z,12.50
2019-04-05T08:10:43.883Z,12.45
2019-04-05T08:13:14.229Z,12.40
2019-04-05T08:15:42.917Z,12.75
2019-04-05T08:18:11.691Z,12.43
2019-04-05T08:20:40.382Z,12.28
2019-04-05T08:23:09.154Z,10.38
2019-04-05T08:25:40.975Z,9.93
2019-04-05T08:28:08.494Z,9.40
2019-04-05T08:30:37.072Z,9.00
2019-04-05T08:33:05.708Z,9.23
2019-04-05T08:35:34.279Z,9.85
2019-04-05T08:38:03.128Z,8.85
2019-04-05T08:40:31.677Z,8.88
2019-04-05T08:43:01.556Z,10.95
2019-04-05T08:45:30.208Z,11.35
2019-04-05T08:47:58.874Z,9.50
2019-04-05T08:50:27.501Z,8.45
2019-04-05T08:52:56.188Z,8.53
2019-04-05T08:55:24.953Z,8.43
2019-04-05T08:57:53.531Z,8.33
2019-04-05T09:00:22.327Z,13.05
2019-04-05T09:02:51.010Z,9.95
2019-04-05T09:05:19.756Z,9.28
2019-04-05T09:07:48.344Z,8.08
2019-04-05T09:10:17.009Z,8.35
2019-04-05T09:12:45.569Z,8.98
2019-04-05T09:15:14.252Z,8.40
2019-04-05T09:17:42.813Z,9.33
2019-04-05T09:20:12.041Z,9.30
2019-04-05T09:22:40.609Z,9.20
2019-04-05T09:25:09.467Z,9.95
2019-04-05T09:27:38.146Z,11.12
2019-04-05T09:30:07.522Z,11.00
2019-04-05T09:32:36.687Z,10.60
2019-04-05T09:35:05.593Z,9.83
2019-04-05T09:37:34.164Z,9.60
2019-04-05T09:40:03.921Z,9.85
2019-04-05T09:42:32.585Z,11.57
2019-04-05T09:45:01.363Z,10.30
2019-04-05T09:47:30.144Z,11.00
2019-04-05T09:49:58.691Z,10.35
2019-04-05T09:52:27.476Z,10.20
2019-04-05T09:54:56.077Z,10.68
2019-04-05T09:57:24.794Z,10.98
2019-04-05T09:59:53.557Z,9.58
2019-04-05T10:02:22.128Z,10.35
2019-04-05T10:04:50.852Z,10.18
2019-04-05T10:07:19.443Z,10.43
2019-04-05T10:09:50.310Z,10.70
2019-04-05T10:12:18.452Z,9.30
2019-04-05T10:14:46.989Z,9.70
2019-04-05T10:17:15.537Z,10.80
2019-04-05T10:19:49.857Z,10.15
2019-04-05T10:22:14.549Z,10.05
2019-04-05T10:24:43.389Z,9.83
2019-04-05T10:27:12.060Z,9.15
2019-04-05T10:29:40.637Z,9.10
2019-04-05T10:32:09.206Z,9.00
2019-04-05T10:34:37.759Z,9.25
2019-04-05T10:37:06.448Z,10.85
2019-04-05T10:39:34.989Z,9.35
2019-04-05T10:42:05.545Z,10.23
2019-04-05T10:44:34.114Z,9.30
2019-04-05T10:47:03.367Z,11.55
2019-04-05T10:49:32.105Z,8.88
2019-04-05T10:52:00.840Z,10.45
2019-04-05T10:54:29.809Z,10.35
2019-04-05T10:56:58.395Z,9.95
2019-04-05T10:59:27.098Z,9.43
2019-04-05T11:01:55.658Z,9.68
2019-04-05T11:04:24.342Z,8.85
2019-04-05T11:06:52.898Z,9.00
2019-04-05T11:09:21.572Z,8.15
2019-04-05T11:11:50.316Z,9.80
2019-04-05T11:14:18.952Z,9.98
2019-04-05T11:16:57.958Z,10.23
2019-04-05T11:19:18.153Z,10.38
2019-04-05T11:21:48.493Z,9.15
2019-04-05T11:24:17.452Z,10.30
2019-04-05T11:26:46.101Z,9.20
2019-04-05T11:29:14.887Z,9.83
2019-04-05T11:31:55.917Z,10.25
2019-04-05T11:34:14.420Z,11.43
2019-04-05T11:36:43.171Z,14.93
2019-04-05T11:39:11.740Z,11.83
2019-04-05T11:41:42.082Z,10.88
2019-04-05T11:44:11.038Z,9.83
2019-04-05T11:46:39.770Z,9.78
2019-04-05T11:49:08.425Z,9.90
2019-04-05T11:51:37.339Z,9.38
2019-04-05T11:54:05.991Z,9.68
2019-04-05T11:56:35.067Z,9.60
2019-04-05T11:59:06.252Z,9.60
2019-04-05T12:01:43.415Z,10.35
2019-04-05T12:04:12.233Z,10.53
2019-04-05T12:06:40.773Z,20.10
2019-04-05T12:09:09.491Z,9.78
2019-04-05T12:11:38.256Z,10.82
2019-04-05T12:14:06.904Z,10.25
2019-04-05T12:16:36.207Z,10.40
2019-04-05T12:19:05.486Z,11.25
2019-04-05T12:21:34.777Z,11.78
2019-04-05T12:24:04.244Z,10.48
2019-04-05T12:26:34.472Z,10.80
2019-04-05T12:29:03.599Z,11.20
2019-04-05T12:31:32.261Z,11.93
2019-04-05T12:34:00.969Z,11.22
2019-04-05T12:36:29.666Z,12.50
2019-04-05T12:38:58.239Z,12.28
2019-04-05T12:41:26.808Z,11.78
2019-04-05T12:43:55.461Z,12.05
2019-04-05T12:46:24.138Z,13.75
2019-04-05T12:48:52.726Z,12.35
2019-04-05T12:51:21.488Z,11.85
2019-04-05T12:53:50.290Z,13.08
2019-04-05T12:56:19.147Z,12.13
2019-04-05T12:58:48.003Z,12.58
2019-04-05T13:01:16.870Z,12.78
2019-04-05T13:03:46.062Z,13.25
2019-04-05T13:06:15.288Z,10.98
2019-04-05T13:08:43.914Z,12.07
2019-04-05T13:11:12.541Z,12.37
2019-04-05T13:13:41.056Z,12.15
2019-04-05T13:16:10.968Z,12.13
2019-04-05T13:18:39.714Z,11.45
2019-04-05T13:21:15.042Z,12.40
2019-04-05T13:23:39.032Z,11.18
2019-04-05T13:26:11.505Z,11.97
2019-04-05T13:28:38.719Z,10.88
2019-04-05T13:31:07.318Z,12.18
2019-04-05T13:33:35.962Z,10.78
2019-04-05T13:36:04.641Z,11.08
2019-04-05T13:38:33.283Z,10.70
2019-04-05T13:41:02.216Z,16.57
2019-04-05T13:43:31.882Z,12.30
2019-04-05T13:46:01.488Z,12.45
2019-04-05T13:48:30.463Z,15.53
2019-04-05T13:50:59.221Z,12.60
2019-04-05T13:53:27.789Z,14.90
2019-04-05T13:55:56.401Z,12.82
2019-04-05T13:58:24.935Z,14.33
2019-04-05T14:00:53.642Z,12.07
2019-04-05T14:03:22.185Z,10.23
2019-04-05T14:05:54.002Z,10.53
2019-04-05T14:08:21.655Z,10.68
2019-04-05T14:10:50.325Z,10.93
2019-04-05T14:13:19.580Z,9.75
2019-04-05T14:15:48.257Z,10.50
2019-04-05T14:18:16.780Z,10.38
2019-04-05T14:20:45.433Z,10.95
2019-04-05T14:23:13.986Z,10.90
2019-04-05T14:25:42.757Z,11.40
2019-04-05T14:28:11.859Z,11.25
2019-04-05T14:30:40.802Z,11.10
2019-04-05T14:33:09.544Z,10.58
2019-04-05T14:35:38.201Z,10.63
2019-04-05T14:38:06.740Z,11.03
2019-04-05T14:40:35.394Z,9.95
2019-04-05T14:43:04.140Z,10.78
2019-04-05T14:45:32.800Z,10.78
2019-04-05T14:48:01.495Z,12.05
2019-04-05T14:50:30.259Z,12.07
2019-04-05T14:53:01.203Z,11.18
2019-04-05T14:55:29.870Z,12.45
2019-04-05T14:57:59.125Z,12.15
2019-04-05T15:00:27.905Z,11.35
2019-04-05T15:02:56.475Z,12.43
2019-04-05T15:05:25.035Z,11.33
2019-04-05T15:07:54.968Z,11.08
2019-04-05T15:10:25.283Z,11.22
2019-04-05T15:12:54.382Z,12.25
2019-04-05T15:15:23.137Z,10.88
2019-04-05T15:17:51.932Z,11.70
2019-04-05T15:20:20.881Z,11.97
2019-04-05T15:22:49.434Z,10.88
2019-04-05T15:25:21.574Z,11.15
2019-04-05T15:27:51.259Z,11.68
2019-04-05T15:30:19.742Z,11.78
2019-04-05T15:32:51.193Z,10.70
2019-04-05T15:35:18.928Z,12.15
2019-04-05T15:37:47.517Z,10.55
2019-04-05T15:40:16.366Z,11.05
2019-04-05T15:42:44.912Z,12.07
2019-04-05T15:45:16.053Z,12.68
2019-04-05T15:47:44.472Z,11.63
2019-04-05T15:50:13.338Z,14.73
2019-04-05T15:52:44.409Z,22.22
2019-04-05T15:55:13.308Z,9.65
2019-04-05T15:57:42.011Z,13.03
2019-04-05T16:00:11.997Z,10.13
2019-04-05T16:02:42.922Z,11.70
2019-04-05T16:05:12.243Z,11.55
2019-04-05T16:07:40.979Z,13.58
2019-04-05T16:10:10.381Z,10.98
2019-04-05T16:12:39.147Z,20.97
2019-04-05T16:15:08.213Z,11.03
2019-04-05T16:17:37.185Z,14.80
2019-04-05T16:20:07.167Z,13.20
2019-04-05T16:22:36.099Z,12.73
2019-04-05T16:25:05.790Z,13.62
2019-04-05T16:27:34.364Z,12.00
2019-04-05T16:30:04.178Z,12.98
2019-04-05T16:32:33.096Z,13.48
2019-04-05T16:35:01.678Z,13.13
2019-04-05T16:37:30.225Z,18.07
2019-04-05T16:39:58.856Z,15.58
2019-04-05T16:42:27.633Z,16.02
2019-04-05T16:44:56.405Z,18.15
2019-04-05T16:47:25.163Z,17.07
2019-04-05T16:49:53.926Z,18.05
2019-04-05T16:52:22.519Z,16.62
2019-04-05T16:54:51.066Z,18.42
2019-04-05T16:57:19.769Z,18.15
2019-04-05T16:59:48.537Z,16.87
2019-04-05T17:02:17.217Z,15.90
2019-04-05T17:04:45.791Z,16.60
2019-04-05T17:07:14.344Z,19.55
2019-04-05T17:09:42.899Z,17.30
2019-04-05T17:12:11.582Z,16.27
2019-04-05T17:14:40.335Z,16.70
2019-04-05T17:17:09.007Z,19.48
2019-04-05T17:19:37.576Z,17.65
2019-04-05T17:22:06.218Z,18.75
2019-04-05T17:24:34.761Z,19.52
2019-04-05T17:27:03.690Z,19.77
2019-04-05T17:29:32.373Z,19.25
2019-04-05T17:32:01.039Z,26.42
2019-04-05T17:34:29.639Z,22.35
2019-04-05T17:36:58.303Z,20.55
2019-04-05T17:39:26.847Z,21.73
2019-04-05T17:41:55.527Z,21.37
2019-04-05T17:44:24.071Z,19.57
2019-04-05T17:46:52.629Z,19.52
2019-04-05T17:49:21.183Z,20.25
2019-04-05T17:51:49.828Z,20.20
2019-04-05T17:54:18.473Z,22.15
2019-04-05T17:56:47.290Z,21.57
2019-04-05T17:59:16.024Z,22.00
2019-04-05T18:01:44.788Z,21.60
2019-04-05T18:04:13.472Z,19.70
2019-04-05T18:06:42.014Z,21.55
2019-04-05T18:09:10.895Z,20.40
2019-04-05T18:11:39.681Z,21.02
2019-04-05T18:14:08.263Z,20.62
2019-04-05T18:16:36.819Z,19.40
2019-04-05T18:19:05.496Z,19.80
2019-04-05T18:21:34.038Z,20.45
2019-04-05T18:24:02.787Z,21.30
2019-04-05T18:26:31.457Z,20.48
2019-04-05T18:29:00.123Z,20.75
2019-04-05T18:31:29.462Z,21.33
2019-04-05T18:33:58.036Z,20.45
2019-04-05T18:36:26.675Z,20.43
2019-04-05T18:38:55.286Z,20.27
2019-04-05T18:41:24.068Z,19.82
2019-04-05T18:43:52.587Z,24.02
2019-04-05T18:46:21.233Z,20.43
2019-04-05T18:48:49.938Z,20.20
2019-04-05T18:51:18.471Z,20.85
2019-04-05T18:53:47.210Z,19.67
2019-04-05T18:56:15.767Z,20.48
2019-04-05T18:58:44.560Z,23.62
2019-04-05T19:01:13.225Z,20.72
2019-04-05T19:03:41.809Z,21.75
2019-04-05T19:06:10.447Z,24.65
2019-04-05T19:08:40.169Z,22.82
2019-04-05T19:11:08.879Z,22.98
2019-04-05T19:13:37.536Z,20.52
2019-04-05T19:16:06.366Z,21.10
2019-04-05T19:18:35.349Z,20.52
2019-04-05T19:21:04.256Z,20.00
2019-04-05T19:23:32.932Z,21.65
2019-04-05T19:26:01.625Z,20.88
2019-04-05T19:28:30.407Z,21.00
2019-04-05T19:48:35.278Z,22.37
2019-04-05T19:51:04.111Z,22.70
2019-04-05T19:53:32.766Z,21.30
2019-04-05T19:56:01.657Z,21.70
2019-04-05T19:58:30.224Z,21.95
2019-04-05T20:00:59.284Z,24.65
2019-04-05T20:03:28.068Z,21.77
2019-04-05T20:05:56.820Z,22.62
2019-04-05T20:08:25.487Z,22.13
2019-04-05T20:10:54.362Z,23.98
2019-04-05T20:13:23.103Z,25.12
2019-04-05T20:15:51.648Z,24.30
2019-04-05T20:18:20.337Z,25.35
2019-04-05T20:20:48.884Z,24.77
2019-04-05T20:23:17.539Z,24.07
2019-04-05T20:25:46.208Z,25.90
2019-04-05T20:28:14.748Z,27.75
2019-04-05T20:30:43.400Z,25.80
2019-04-05T20:33:11.978Z,26.55
2019-04-05T20:35:40.628Z,23.57
2019-04-05T20:38:09.299Z,26.05
2019-04-05T20:40:37.946Z,25.70
2019-04-05T20:43:06.615Z,25.15
2019-04-05T20:45:35.379Z,25.65
2019-04-05T20:48:04.065Z,25.77
2019-04-05T20:50:32.716Z,25.70
2019-04-05T20:53:01.410Z,24.75
2019-04-05T20:55:30.029Z,25.45
2019-04-05T20:57:58.670Z,26.37
2019-04-05T21:00:27.322Z,25.82
2019-04-05T21:02:55.910Z,26.27
2019-04-05T21:05:25.475Z,24.25
2019-04-05T21:07:54.541Z,26.42
2019-04-05T21:10:23.117Z,24.27
2019-04-05T21:12:51.651Z,24.10
2019-04-05T21:15:20.220Z,25.68
2019-04-05T21:17:49.204Z,23.92
2019-04-05T21:20:17.971Z,24.47
2019-04-05T21:22:46.504Z,23.80
2019-04-05T21:25:15.231Z,24.50
2019-04-05T21:27:43.775Z,23.00
2019-04-05T21:30:14.057Z,24.77
2019-04-05T21:32:42.756Z,23.92
2019-04-05T21:35:11.409Z,25.20
2019-04-05T21:37:39.947Z,25.45
2019-04-05T21:40:08.625Z,26.85
2019-04-05T21:42:37.272Z,23.60
2019-04-05T21:45:06.071Z,26.42
2019-04-05T21:47:34.795Z,26.57
2019-04-05T21:50:04.344Z,25.75
2019-04-05T21:52:32.882Z,26.48
2019-04-05T21:55:01.558Z,27.82
2019-04-05T21:57:30.108Z,27.45
2019-04-05T21:59:58.665Z,26.97
2019-04-05T22:02:27.447Z,27.02
2019-04-05T22:04:56.192Z,26.97
2019-04-05T22:07:24.840Z,28.05
2019-04-05T22:09:53.506Z,31.25
2019-04-05T22:12:22.036Z,30.10
2019-04-05T22:14:50.784Z,30.35
2019-04-05T22:17:19.464Z,28.38
2019-04-05T22:19:48.098Z,28.23
2019-04-05T22:22:16.649Z,29.18
2019-04-05T22:24:45.230Z,29.77
2019-04-05T22:27:13.794Z,28.55
2019-04-05T22:29:42.362Z,27.42
2019-04-05T22:32:11.660Z,27.52
2019-04-05T22:34:40.396Z,28.07
2019-04-05T22:37:08.965Z,28.47
2019-04-05T22:39:37.546Z,29.67
2019-04-05T22:42:06.095Z,27.87
2019-04-05T22:44:39.887Z,31.10
2019-04-05T22:47:05.119Z,29.20
2019-04-05T22:49:33.662Z,28.60
2019-04-05T22:52:02.295Z,28.40
2019-04-05T22:54:30.922Z,31.33
2019-04-05T22:56:59.469Z,31.17
2019-04-05T22:59:28.192Z,31.55
2019-04-05T23:01:56.829Z,32.03
2019-04-05T23:04:25.468Z,31.60
2019-04-05T23:06:54.049Z,32.65
2019-04-05T23:09:22.812Z,33.23
2019-04-05T23:11:51.458Z,33.18
2019-04-05T23:14:20.024Z,32.00
2019-04-05T23:16:48.799Z,32.70
2019-04-05T23:19:17.368Z,31.10
2019-04-05T23:21:45.913Z,30.80
2019-04-05T23:24:14.604Z,32.30
2019-04-05T23:26:43.138Z,31.52
2019-04-05T23:29:11.863Z,32.75
2019-04-05T23:31:40.435Z,31.95
2019-04-05T23:34:09.001Z,32.35
2019-04-05T23:36:37.653Z,31.97
2019-04-05T23:39:06.416Z,29.32
2019-04-05T23:41:35.066Z,31.00
2019-04-05T23:44:03.799Z,31.75
2019-04-05T23:46:32.394Z,31.33
2019-04-05T23:49:00.938Z,32.30
2019-04-05T23:51:29.516Z,32.53
2019-04-05T23:53:58.171Z,34.35
2019-04-05T23:56:26.827Z,32.30
2019-04-05T23:58:55.374Z,31.37
